sensor_id;sensor_type;location;lat;lon;timestamp;P1;durP1;ratioP1;P2;durP2;ratioP2
74833;SDS011;63361;52.384;20.930;2023-05-07T00:00:15;12.93;;;5.65;;
74833;SDS011;63361;52.384;20.930;2023-05-07T00:02:42;10.00;;;4.90;;
74833;SDS011;63361;52.384;20.930;2023-05-07T00:05:09;12.80;;;5.63;;
74833;SDS011;63361;52.384;20.930;2023-05-07T00:07:35;10.65;;;5.05;;
74833;SDS011;63361;52.384;20.930;2023-05-07T00:10:00;11.73;;;4.97;;
74833;SDS011;63361;52.384;20.930;2023-05-07T00:12:26;12.18;;;5.25;;
74833;SDS011;63361;52.384;20.930;2023-05-07T00:14:51;9.27;;;5.10;;
74833;SDS011;63361;52.384;20.930;2023-05-07T00:17:17;10.60;;;5.27;;
74833;SDS011;63361;52.384;20.930;2023-05-07T00:19:42;8.77;;;4.43;;
74833;SDS011;63361;52.384;20.930;2023-05-07T00:22:07;13.17;;;4.93;;
74833;SDS011;63361;52.384;20.930;2023-05-07T00:24:33;9.43;;;4.77;;
74833;SDS011;63361;52.384;20.930;2023-05-07T00:26:58;8.38;;;4.90;;
74833;SDS011;63361;52.384;20.930;2023-05-07T00:29:23;10.20;;;4.60;;
74833;SDS011;63361;52.384;20.930;2023-05-07T00:31:49;9.40;;;4.80;;
74833;SDS011;63361;52.384;20.930;2023-05-07T00:34:15;9.48;;;4.50;;
74833;SDS011;63361;52.384;20.930;2023-05-07T00:36:40;9.27;;;4.87;;
74833;SDS011;63361;52.384;20.930;2023-05-07T00:39:06;8.63;;;4.40;;
74833;SDS011;63361;52.384;20.930;2023-05-07T00:41:31;11.50;;;5.20;;
74833;SDS011;63361;52.384;20.930;2023-05-07T00:43:57;10.17;;;4.97;;
74833;SDS011;63361;52.384;20.930;2023-05-07T00:46:22;8.68;;;4.57;;
74833;SDS011;63361;52.384;20.930;2023-05-07T00:48:49;10.53;;;4.53;;
74833;SDS011;63361;52.384;20.930;2023-05-07T00:51:16;9.65;;;4.95;;
74833;SDS011;63361;52.384;20.930;2023-05-07T00:53:42;9.35;;;4.90;;
74833;SDS011;63361;52.384;20.930;2023-05-07T00:56:08;10.40;;;5.13;;
74833;SDS011;63361;52.384;20.930;2023-05-07T00:58:33;9.63;;;4.55;;
74833;SDS011;63361;52.384;20.930;2023-05-07T01:00:59;10.13;;;4.70;;
74833;SDS011;63361;52.384;20.930;2023-05-07T01:03:25;8.00;;;4.05;;
74833;SDS011;63361;52.384;20.930;2023-05-07T01:05:50;9.80;;;5.03;;
74833;SDS011;63361;52.384;20.930;2023-05-07T01:08:18;10.60;;;4.18;;
74833;SDS011;63361;52.384;20.930;2023-05-07T01:10:45;9.95;;;4.55;;
74833;SDS011;63361;52.384;20.930;2023-05-07T01:13:11;9.37;;;4.73;;
74833;SDS011;63361;52.384;20.930;2023-05-07T01:15:37;10.30;;;4.60;;
74833;SDS011;63361;52.384;20.930;2023-05-07T01:18:05;8.07;;;4.38;;
74833;SDS011;63361;52.384;20.930;2023-05-07T01:20:31;8.00;;;4.50;;
74833;SDS011;63361;52.384;20.930;2023-05-07T01:22:57;11.20;;;4.90;;
74833;SDS011;63361;52.384;20.930;2023-05-07T01:25:22;9.80;;;4.43;;
74833;SDS011;63361;52.384;20.930;2023-05-07T01:27:48;9.82;;;5.10;;
74833;SDS011;63361;52.384;20.930;2023-05-07T01:30:14;11.57;;;4.60;;
74833;SDS011;63361;52.384;20.930;2023-05-07T01:35:07;10.17;;;4.67;;
74833;SDS011;63361;52.384;20.930;2023-05-07T01:37:36;10.20;;;4.68;;
74833;SDS011;63361;52.384;20.930;2023-05-07T01:40:02;10.65;;;4.38;;
74833;SDS011;63361;52.384;20.930;2023-05-07T01:42:28;7.83;;;4.50;;
74833;SDS011;63361;52.384;20.930;2023-05-07T01:44:54;9.52;;;3.65;;
74833;SDS011;63361;52.384;20.930;2023-05-07T01:47:20;7.37;;;4.10;;
74833;SDS011;63361;52.384;20.930;2023-05-07T01:49:46;9.00;;;4.10;;
74833;SDS011;63361;52.384;20.930;2023-05-07T01:52:11;8.27;;;4.18;;
74833;SDS011;63361;52.384;20.930;2023-05-07T01:54:37;6.53;;;3.70;;
74833;SDS011;63361;52.384;20.930;2023-05-07T01:57:03;9.30;;;3.90;;
74833;SDS011;63361;52.384;20.930;2023-05-07T01:59:28;12.10;;;4.53;;
74833;SDS011;63361;52.384;20.930;2023-05-07T02:01:53;9.37;;;4.10;;
74833;SDS011;63361;52.384;20.930;2023-05-07T02:04:19;9.90;;;4.30;;
74833;SDS011;63361;52.384;20.930;2023-05-07T02:06:44;6.60;;;3.90;;
74833;SDS011;63361;52.384;20.930;2023-05-07T02:09:09;6.60;;;3.20;;
74833;SDS011;63361;52.384;20.930;2023-05-07T02:11:36;6.80;;;3.50;;
74833;SDS011;63361;52.384;20.930;2023-05-07T02:14:01;7.30;;;4.00;;
74833;SDS011;63361;52.384;20.930;2023-05-07T02:16:26;7.50;;;3.93;;
74833;SDS011;63361;52.384;20.930;2023-05-07T02:18:51;8.63;;;3.60;;
74833;SDS011;63361;52.384;20.930;2023-05-07T02:21:17;6.60;;;3.73;;
74833;SDS011;63361;52.384;20.930;2023-05-07T02:23:42;8.27;;;3.42;;
74833;SDS011;63361;52.384;20.930;2023-05-07T02:26:08;8.60;;;3.60;;
74833;SDS011;63361;52.384;20.930;2023-05-07T02:28:33;8.00;;;4.10;;
74833;SDS011;63361;52.384;20.930;2023-05-07T02:31:02;7.05;;;3.65;;
74833;SDS011;63361;52.384;20.930;2023-05-07T02:33:27;6.15;;;3.42;;
74833;SDS011;63361;52.384;20.930;2023-05-07T02:35:53;7.03;;;3.80;;
74833;SDS011;63361;52.384;20.930;2023-05-07T02:38:18;7.33;;;3.50;;
74833;SDS011;63361;52.384;20.930;2023-05-07T02:40:43;6.27;;;3.43;;
74833;SDS011;63361;52.384;20.930;2023-05-07T02:43:09;7.37;;;3.23;;
74833;SDS011;63361;52.384;20.930;2023-05-07T02:45:34;7.60;;;3.60;;
74833;SDS011;63361;52.384;20.930;2023-05-07T02:48:01;7.30;;;3.33;;
74833;SDS011;63361;52.384;20.930;2023-05-07T02:50:26;5.50;;;3.33;;
74833;SDS011;63361;52.384;20.930;2023-05-07T02:52:52;6.93;;;3.70;;
74833;SDS011;63361;52.384;20.930;2023-05-07T02:55:17;6.83;;;3.60;;
74833;SDS011;63361;52.384;20.930;2023-05-07T02:57:42;7.53;;;3.03;;
74833;SDS011;63361;52.384;20.930;2023-05-07T03:00:14;5.60;;;3.07;;
74833;SDS011;63361;52.384;20.930;2023-05-07T03:02:41;7.97;;;3.83;;
74833;SDS011;63361;52.384;20.930;2023-05-07T03:05:07;6.97;;;3.20;;
74833;SDS011;63361;52.384;20.930;2023-05-07T03:07:33;7.03;;;3.28;;
74833;SDS011;63361;52.384;20.930;2023-05-07T03:09:59;6.78;;;3.10;;
74833;SDS011;63361;52.384;20.930;2023-05-07T03:12:25;6.73;;;3.60;;
74833;SDS011;63361;52.384;20.930;2023-05-07T03:14:50;10.27;;;3.63;;
74833;SDS011;63361;52.384;20.930;2023-05-07T03:17:15;5.67;;;3.23;;
74833;SDS011;63361;52.384;20.930;2023-05-07T03:19:41;9.47;;;3.10;;
74833;SDS011;63361;52.384;20.930;2023-05-07T03:22:06;7.83;;;3.20;;
74833;SDS011;63361;52.384;20.930;2023-05-07T03:24:32;7.13;;;2.90;;
74833;SDS011;63361;52.384;20.930;2023-05-07T03:26:57;6.63;;;3.50;;
74833;SDS011;63361;52.384;20.930;2023-05-07T03:29:22;8.03;;;3.63;;
74833;SDS011;63361;52.384;20.930;2023-05-07T03:31:48;6.33;;;2.90;;
74833;SDS011;63361;52.384;20.930;2023-05-07T03:34:13;6.70;;;3.50;;
74833;SDS011;63361;52.384;20.930;2023-05-07T03:36:38;6.13;;;3.10;;
74833;SDS011;63361;52.384;20.930;2023-05-07T03:39:04;5.87;;;3.00;;
74833;SDS011;63361;52.384;20.930;2023-05-07T03:41:29;6.50;;;3.17;;
74833;SDS011;63361;52.384;20.930;2023-05-07T03:43:55;7.77;;;3.37;;
74833;SDS011;63361;52.384;20.930;2023-05-07T03:46:20;6.57;;;3.40;;
74833;SDS011;63361;52.384;20.930;2023-05-07T03:48:45;5.73;;;3.00;;
74833;SDS011;63361;52.384;20.930;2023-05-07T03:51:11;7.27;;;3.40;;
74833;SDS011;63361;52.384;20.930;2023-05-07T03:53:36;7.13;;;3.63;;
74833;SDS011;63361;52.384;20.930;2023-05-07T03:56:01;5.90;;;3.07;;
74833;SDS011;63361;52.384;20.930;2023-05-07T03:58:27;8.00;;;3.05;;
74833;SDS011;63361;52.384;20.930;2023-05-07T04:00:53;7.10;;;3.37;;
74833;SDS011;63361;52.384;20.930;2023-05-07T04:03:18;6.07;;;2.77;;
74833;SDS011;63361;52.384;20.930;2023-05-07T04:05:43;8.60;;;3.70;;
74833;SDS011;63361;52.384;20.930;2023-05-07T04:08:09;6.70;;;3.45;;
74833;SDS011;63361;52.384;20.930;2023-05-07T04:10:34;7.07;;;3.43;;
74833;SDS011;63361;52.384;20.930;2023-05-07T04:12:59;6.50;;;2.63;;
74833;SDS011;63361;52.384;20.930;2023-05-07T04:15:25;6.67;;;2.67;;
74833;SDS011;63361;52.384;20.930;2023-05-07T04:17:50;6.40;;;3.10;;
74833;SDS011;63361;52.384;20.930;2023-05-07T04:20:16;7.70;;;3.27;;
74833;SDS011;63361;52.384;20.930;2023-05-07T04:22:42;5.63;;;2.55;;
74833;SDS011;63361;52.384;20.930;2023-05-07T04:25:08;7.40;;;3.17;;
74833;SDS011;63361;52.384;20.930;2023-05-07T04:27:34;7.43;;;2.57;;
74833;SDS011;63361;52.384;20.930;2023-05-07T04:30:01;9.55;;;3.17;;
74833;SDS011;63361;52.384;20.930;2023-05-07T04:32:27;6.10;;;2.78;;
74833;SDS011;63361;52.384;20.930;2023-05-07T04:34:54;8.45;;;3.03;;
74833;SDS011;63361;52.384;20.930;2023-05-07T04:37:20;8.17;;;3.33;;
74833;SDS011;63361;52.384;20.930;2023-05-07T04:39:46;6.03;;;2.55;;
74833;SDS011;63361;52.384;20.930;2023-05-07T04:42:14;5.50;;;2.63;;
74833;SDS011;63361;52.384;20.930;2023-05-07T04:44:43;5.57;;;2.80;;
74833;SDS011;63361;52.384;20.930;2023-05-07T04:47:09;7.65;;;3.10;;
74833;SDS011;63361;52.384;20.930;2023-05-07T04:49:35;6.70;;;3.03;;
74833;SDS011;63361;52.384;20.930;2023-05-07T04:52:00;6.67;;;3.30;;
74833;SDS011;63361;52.384;20.930;2023-05-07T04:54:26;5.13;;;2.77;;
74833;SDS011;63361;52.384;20.930;2023-05-07T04:56:51;6.97;;;3.03;;
74833;SDS011;63361;52.384;20.930;2023-05-07T04:59:16;5.37;;;2.87;;
74833;SDS011;63361;52.384;20.930;2023-05-07T05:01:42;5.53;;;2.87;;
74833;SDS011;63361;52.384;20.930;2023-05-07T05:04:07;6.43;;;2.83;;
74833;SDS011;63361;52.384;20.930;2023-05-07T05:06:32;5.35;;;2.22;;
74833;SDS011;63361;52.384;20.930;2023-05-07T05:08:58;5.17;;;2.50;;
74833;SDS011;63361;52.384;20.930;2023-05-07T05:11:23;7.13;;;2.73;;
74833;SDS011;63361;52.384;20.930;2023-05-07T05:13:48;6.77;;;1.97;;
74833;SDS011;63361;52.384;20.930;2023-05-07T05:16:14;5.70;;;2.70;;
74833;SDS011;63361;52.384;20.930;2023-05-07T05:18:40;5.57;;;2.63;;
74833;SDS011;63361;52.384;20.930;2023-05-07T05:21:05;6.13;;;2.10;;
74833;SDS011;63361;52.384;20.930;2023-05-07T05:23:31;7.90;;;2.67;;
74833;SDS011;63361;52.384;20.930;2023-05-07T05:25:56;6.25;;;2.60;;
74833;SDS011;63361;52.384;20.930;2023-05-07T05:28:22;4.70;;;2.43;;
74833;SDS011;63361;52.384;20.930;2023-05-07T05:30:48;5.53;;;2.20;;
74833;SDS011;63361;52.384;20.930;2023-05-07T05:33:14;6.10;;;2.70;;
74833;SDS011;63361;52.384;20.930;2023-05-07T05:35:39;5.65;;;2.33;;
74833;SDS011;63361;52.384;20.930;2023-05-07T05:38:05;5.60;;;2.10;;
74833;SDS011;63361;52.384;20.930;2023-05-07T05:40:30;6.50;;;2.40;;
74833;SDS011;63361;52.384;20.930;2023-05-07T05:42:55;5.83;;;2.63;;
74833;SDS011;63361;52.384;20.930;2023-05-07T05:45:21;5.07;;;2.40;;
74833;SDS011;63361;52.384;20.930;2023-05-07T05:47:46;5.00;;;2.53;;
74833;SDS011;63361;52.384;20.930;2023-05-07T05:50:11;6.60;;;2.90;;
74833;SDS011;63361;52.384;20.930;2023-05-07T05:52:37;6.77;;;2.73;;
74833;SDS011;63361;52.384;20.930;2023-05-07T05:55:03;7.10;;;2.78;;
74833;SDS011;63361;52.384;20.930;2023-05-07T05:57:28;6.70;;;2.60;;
74833;SDS011;63361;52.384;20.930;2023-05-07T05:59:54;4.35;;;1.88;;
74833;SDS011;63361;52.384;20.930;2023-05-07T06:02:20;4.10;;;1.90;;
74833;SDS011;63361;52.384;20.930;2023-05-07T06:04:45;5.93;;;2.30;;
74833;SDS011;63361;52.384;20.930;2023-05-07T06:07:10;5.63;;;2.10;;
74833;SDS011;63361;52.384;20.930;2023-05-07T06:09:36;5.95;;;2.42;;
74833;SDS011;63361;52.384;20.930;2023-05-07T06:12:01;4.13;;;1.90;;
74833;SDS011;63361;52.384;20.930;2023-05-07T06:14:27;5.07;;;2.37;;
74833;SDS011;63361;52.384;20.930;2023-05-07T06:16:52;4.80;;;2.40;;
74833;SDS011;63361;52.384;20.930;2023-05-07T06:19:18;4.72;;;2.30;;
74833;SDS011;63361;52.384;20.930;2023-05-07T06:21:47;4.90;;;2.30;;
74833;SDS011;63361;52.384;20.930;2023-05-07T06:24:13;4.70;;;2.38;;
74833;SDS011;63361;52.384;20.930;2023-05-07T06:26:38;4.37;;;2.10;;
74833;SDS011;63361;52.384;20.930;2023-05-07T06:29:04;4.73;;;2.10;;
74833;SDS011;63361;52.384;20.930;2023-05-07T06:31:30;4.70;;;2.07;;
74833;SDS011;63361;52.384;20.930;2023-05-07T06:33:56;4.28;;;1.92;;
74833;SDS011;63361;52.384;20.930;2023-05-07T06:36:22;4.63;;;1.97;;
74833;SDS011;63361;52.384;20.930;2023-05-07T06:38:47;5.53;;;2.37;;
74833;SDS011;63361;52.384;20.930;2023-05-07T06:41:12;4.70;;;2.10;;
74833;SDS011;63361;52.384;20.930;2023-05-07T06:43:38;3.67;;;1.90;;
74833;SDS011;63361;52.384;20.930;2023-05-07T06:46:03;5.03;;;2.60;;
74833;SDS011;63361;52.384;20.930;2023-05-07T06:48:28;4.53;;;2.03;;
74833;SDS011;63361;52.384;20.930;2023-05-07T06:50:54;4.73;;;2.00;;
74833;SDS011;63361;52.384;20.930;2023-05-07T06:53:20;4.65;;;2.08;;
74833;SDS011;63361;52.384;20.930;2023-05-07T06:55:46;3.93;;;2.07;;
74833;SDS011;63361;52.384;20.930;2023-05-07T06:58:11;9.43;;;2.50;;
74833;SDS011;63361;52.384;20.930;2023-05-07T07:00:36;4.10;;;2.10;;
74833;SDS011;63361;52.384;20.930;2023-05-07T07:03:02;4.70;;;2.13;;
74833;SDS011;63361;52.384;20.930;2023-05-07T07:05:27;5.45;;;1.90;;
74833;SDS011;63361;52.384;20.930;2023-05-07T07:07:52;5.30;;;2.40;;
74833;SDS011;63361;52.384;20.930;2023-05-07T07:10:21;4.73;;;2.20;;
74833;SDS011;63361;52.384;20.930;2023-05-07T07:12:48;4.43;;;2.03;;
74833;SDS011;63361;52.384;20.930;2023-05-07T07:15:14;5.70;;;2.23;;
74833;SDS011;63361;52.384;20.930;2023-05-07T07:17:40;4.13;;;1.80;;
74833;SDS011;63361;52.384;20.930;2023-05-07T07:20:05;4.50;;;1.90;;
74833;SDS011;63361;52.384;20.930;2023-05-07T07:22:31;6.93;;;2.00;;
74833;SDS011;63361;52.384;20.930;2023-05-07T07:24:57;4.20;;;1.70;;
74833;SDS011;63361;52.384;20.930;2023-05-07T07:27:22;7.03;;;2.03;;
74833;SDS011;63361;52.384;20.930;2023-05-07T07:29:47;5.00;;;1.92;;
74833;SDS011;63361;52.384;20.930;2023-05-07T07:32:13;4.77;;;2.00;;
74833;SDS011;63361;52.384;20.930;2023-05-07T07:34:38;5.73;;;2.47;;
74833;SDS011;63361;52.384;20.930;2023-05-07T07:37:03;4.73;;;2.20;;
74833;SDS011;63361;52.384;20.930;2023-05-07T07:39:34;4.20;;;1.80;;
74833;SDS011;63361;52.384;20.930;2023-05-07T07:41:59;7.93;;;2.03;;
74833;SDS011;63361;52.384;20.930;2023-05-07T07:44:25;8.67;;;3.57;;
74833;SDS011;63361;52.384;20.930;2023-05-07T07:46:50;4.30;;;2.00;;
74833;SDS011;63361;52.384;20.930;2023-05-07T07:49:16;4.28;;;1.65;;
74833;SDS011;63361;52.384;20.930;2023-05-07T07:51:42;3.95;;;1.40;;
74833;SDS011;63361;52.384;20.930;2023-05-07T07:54:08;5.60;;;1.80;;
74833;SDS011;63361;52.384;20.930;2023-05-07T07:56:33;4.10;;;1.80;;
74833;SDS011;63361;52.384;20.930;2023-05-07T07:58:59;3.80;;;1.80;;
74833;SDS011;63361;52.384;20.930;2023-05-07T08:01:24;5.17;;;2.47;;
74833;SDS011;63361;52.384;20.930;2023-05-07T08:03:51;4.05;;;1.77;;
74833;SDS011;63361;52.384;20.930;2023-05-07T08:06:16;5.97;;;1.90;;
74833;SDS011;63361;52.384;20.930;2023-05-07T08:08:41;4.57;;;1.50;;
74833;SDS011;63361;52.384;20.930;2023-05-07T08:11:07;5.07;;;1.90;;
74833;SDS011;63361;52.384;20.930;2023-05-07T08:13:32;3.73;;;1.50;;
74833;SDS011;63361;52.384;20.930;2023-05-07T08:15:58;9.02;;;2.03;;
74833;SDS011;63361;52.384;20.930;2023-05-07T08:18:23;3.63;;;1.60;;
74833;SDS011;63361;52.384;20.930;2023-05-07T08:20:49;2.67;;;1.27;;
74833;SDS011;63361;52.384;20.930;2023-05-07T08:23:15;4.38;;;1.80;;
74833;SDS011;63361;52.384;20.930;2023-05-07T08:25:41;3.27;;;1.20;;
74833;SDS011;63361;52.384;20.930;2023-05-07T08:28:07;3.13;;;1.40;;
74833;SDS011;63361;52.384;20.930;2023-05-07T08:30:33;3.17;;;1.40;;
74833;SDS011;63361;52.384;20.930;2023-05-07T08:32:58;3.10;;;1.40;;
74833;SDS011;63361;52.384;20.930;2023-05-07T08:35:24;3.08;;;1.30;;
74833;SDS011;63361;52.384;20.930;2023-05-07T08:37:50;4.27;;;1.50;;
74833;SDS011;63361;52.384;20.930;2023-05-07T08:40:16;5.00;;;1.70;;
74833;SDS011;63361;52.384;20.930;2023-05-07T08:42:41;3.03;;;1.20;;
74833;SDS011;63361;52.384;20.930;2023-05-07T08:45:08;4.70;;;1.33;;
74833;SDS011;63361;52.384;20.930;2023-05-07T08:47:46;2.85;;;1.20;;
74833;SDS011;63361;52.384;20.930;2023-05-07T08:50:13;4.18;;;1.60;;
74833;SDS011;63361;52.384;20.930;2023-05-07T08:52:39;5.63;;;1.40;;
74833;SDS011;63361;52.384;20.930;2023-05-07T08:55:05;4.20;;;1.42;;
74833;SDS011;63361;52.384;20.930;2023-05-07T08:57:32;2.95;;;1.13;;
74833;SDS011;63361;52.384;20.930;2023-05-07T08:59:57;4.27;;;1.60;;
74833;SDS011;63361;52.384;20.930;2023-05-07T09:02:23;4.50;;;1.50;;
74833;SDS011;63361;52.384;20.930;2023-05-07T09:04:48;4.33;;;1.57;;
74833;SDS011;63361;52.384;20.930;2023-05-07T09:07:13;3.50;;;1.30;;
74833;SDS011;63361;52.384;20.930;2023-05-07T09:09:39;3.13;;;1.37;;
74833;SDS011;63361;52.384;20.930;2023-05-07T09:12:04;3.17;;;0.80;;
74833;SDS011;63361;52.384;20.930;2023-05-07T09:14:30;4.13;;;1.35;;
74833;SDS011;63361;52.384;20.930;2023-05-07T09:16:56;3.13;;;1.10;;
74833;SDS011;63361;52.384;20.930;2023-05-07T09:19:22;3.17;;;1.20;;
74833;SDS011;63361;52.384;20.930;2023-05-07T09:24:27;3.78;;;1.52;;
74833;SDS011;63361;52.384;20.930;2023-05-07T09:26:57;3.38;;;1.40;;
74833;SDS011;63361;52.384;20.930;2023-05-07T09:29:23;5.88;;;1.73;;
74833;SDS011;63361;52.384;20.930;2023-05-07T09:31:48;3.17;;;1.30;;
74833;SDS011;63361;52.384;20.930;2023-05-07T09:34:13;5.00;;;1.13;;
74833;SDS011;63361;52.384;20.930;2023-05-07T09:36:39;7.17;;;1.10;;
74833;SDS011;63361;52.384;20.930;2023-05-07T09:39:04;3.35;;;1.30;;
74833;SDS011;63361;52.384;20.930;2023-05-07T09:41:30;3.47;;;1.30;;
74833;SDS011;63361;52.384;20.930;2023-05-07T09:43:57;3.50;;;1.65;;
74833;SDS011;63361;52.384;20.930;2023-05-07T09:46:29;5.15;;;1.23;;
74833;SDS011;63361;52.384;20.930;2023-05-07T09:48:57;3.07;;;1.17;;
74833;SDS011;63361;52.384;20.930;2023-05-07T09:51:57;4.57;;;1.77;;
74833;SDS011;63361;52.384;20.930;2023-05-07T09:54:17;3.58;;;1.38;;
74833;SDS011;63361;52.384;20.930;2023-05-07T09:56:43;6.40;;;3.22;;
74833;SDS011;63361;52.384;20.930;2023-05-07T09:59:13;5.70;;;1.42;;
74833;SDS011;63361;52.384;20.930;2023-05-07T10:01:41;5.00;;;1.57;;
74833;SDS011;63361;52.384;20.930;2023-05-07T10:04:08;5.95;;;1.40;;
74833;SDS011;63361;52.384;20.930;2023-05-07T10:06:35;3.65;;;1.00;;
74833;SDS011;63361;52.384;20.930;2023-05-07T10:09:01;3.42;;;1.20;;
74833;SDS011;63361;52.384;20.930;2023-05-07T10:11:27;4.35;;;1.38;;
74833;SDS011;63361;52.384;20.930;2023-05-07T10:13:53;2.90;;;1.10;;
74833;SDS011;63361;52.384;20.930;2023-05-07T10:16:19;4.03;;;1.40;;
74833;SDS011;63361;52.384;20.930;2023-05-07T10:18:46;4.88;;;1.42;;
74833;SDS011;63361;52.384;20.930;2023-05-07T10:21:18;3.42;;;1.27;;
74833;SDS011;63361;52.384;20.930;2023-05-07T10:23:46;4.10;;;1.30;;
74833;SDS011;63361;52.384;20.930;2023-05-07T10:26:15;3.42;;;1.13;;
74833;SDS011;63361;52.384;20.930;2023-05-07T10:28:44;4.45;;;1.48;;
74833;SDS011;63361;52.384;20.930;2023-05-07T10:34:36;3.97;;;1.60;;
74833;SDS011;63361;52.384;20.930;2023-05-07T10:37:05;5.40;;;1.50;;
74833;SDS011;63361;52.384;20.930;2023-05-07T10:39:31;4.07;;;1.20;;
74833;SDS011;63361;52.384;20.930;2023-05-07T10:41:57;4.20;;;1.40;;
74833;SDS011;63361;52.384;20.930;2023-05-07T10:44:32;3.88;;;1.50;;
74833;SDS011;63361;52.384;20.930;2023-05-07T10:47:07;5.83;;;1.40;;
74833;SDS011;63361;52.384;20.930;2023-05-07T10:52:15;5.38;;;1.17;;
74833;SDS011;63361;52.384;20.930;2023-05-07T10:54:42;3.53;;;1.30;;
74833;SDS011;63361;52.384;20.930;2023-05-07T11:00:03;5.57;;;1.30;;
74833;SDS011;63361;52.384;20.930;2023-05-07T11:05:27;3.95;;;1.30;;
74833;SDS011;63361;52.384;20.930;2023-05-07T11:08:00;5.93;;;1.50;;
74833;SDS011;63361;52.384;20.930;2023-05-07T11:13:41;3.13;;;1.23;;
74833;SDS011;63361;52.384;20.930;2023-05-07T11:16:16;4.72;;;1.95;;
74833;SDS011;63361;52.384;20.930;2023-05-07T11:18:48;4.40;;;1.80;;
74833;SDS011;63361;52.384;20.930;2023-05-07T11:23:59;5.60;;;1.60;;
74833;SDS011;63361;52.384;20.930;2023-05-07T11:26:25;5.32;;;2.08;;
74833;SDS011;63361;52.384;20.930;2023-05-07T11:28:52;4.72;;;1.77;;
74833;SDS011;63361;52.384;20.930;2023-05-07T11:31:22;5.43;;;1.50;;
74833;SDS011;63361;52.384;20.930;2023-05-07T11:33:51;3.95;;;1.67;;
74833;SDS011;63361;52.384;20.930;2023-05-07T11:36:16;3.37;;;1.40;;
74833;SDS011;63361;52.384;20.930;2023-05-07T11:38:43;4.43;;;1.20;;
74833;SDS011;63361;52.384;20.930;2023-05-07T11:41:08;3.30;;;1.37;;
74833;SDS011;63361;52.384;20.930;2023-05-07T11:43:34;3.28;;;1.20;;
74833;SDS011;63361;52.384;20.930;2023-05-07T11:46:10;4.63;;;1.43;;
74833;SDS011;63361;52.384;20.930;2023-05-07T11:48:37;3.10;;;1.35;;
74833;SDS011;63361;52.384;20.930;2023-05-07T11:51:04;3.47;;;1.65;;
74833;SDS011;63361;52.384;20.930;2023-05-07T11:53:40;3.45;;;1.50;;
74833;SDS011;63361;52.384;20.930;2023-05-07T11:56:07;5.22;;;1.42;;
74833;SDS011;63361;52.384;20.930;2023-05-07T11:58:37;3.90;;;1.30;;
74833;SDS011;63361;52.384;20.930;2023-05-07T12:01:03;2.97;;;1.35;;
74833;SDS011;63361;52.384;20.930;2023-05-07T12:03:29;3.72;;;1.30;;
74833;SDS011;63361;52.384;20.930;2023-05-07T12:05:55;3.10;;;1.47;;
74833;SDS011;63361;52.384;20.930;2023-05-07T12:08:21;3.53;;;1.20;;
74833;SDS011;63361;52.384;20.930;2023-05-07T12:10:48;2.75;;;1.10;;
74833;SDS011;63361;52.384;20.930;2023-05-07T12:13:15;2.85;;;1.08;;
74833;SDS011;63361;52.384;20.930;2023-05-07T12:15:41;3.28;;;1.33;;
74833;SDS011;63361;52.384;20.930;2023-05-07T12:18:07;3.20;;;1.30;;
74833;SDS011;63361;52.384;20.930;2023-05-07T12:20:33;4.35;;;1.30;;
74833;SDS011;63361;52.384;20.930;2023-05-07T12:23:00;3.08;;;1.00;;
74833;SDS011;63361;52.384;20.930;2023-05-07T12:25:26;3.30;;;1.37;;
74833;SDS011;63361;52.384;20.930;2023-05-07T12:27:52;2.90;;;1.00;;
74833;SDS011;63361;52.384;20.930;2023-05-07T12:30:18;3.20;;;1.27;;
74833;SDS011;63361;52.384;20.930;2023-05-07T12:32:44;3.55;;;1.40;;
74833;SDS011;63361;52.384;20.930;2023-05-07T12:35:10;3.80;;;1.30;;
74833;SDS011;63361;52.384;20.930;2023-05-07T12:37:35;3.33;;;1.20;;
74833;SDS011;63361;52.384;20.930;2023-05-07T12:40:08;3.33;;;1.10;;
74833;SDS011;63361;52.384;20.930;2023-05-07T12:42:35;3.80;;;1.10;;
74833;SDS011;63361;52.384;20.930;2023-05-07T12:45:15;3.30;;;1.35;;
74833;SDS011;63361;52.384;20.930;2023-05-07T12:47:44;4.47;;;1.13;;
74833;SDS011;63361;52.384;20.930;2023-05-07T12:50:10;2.90;;;1.10;;
74833;SDS011;63361;52.384;20.930;2023-05-07T12:52:36;3.25;;;0.95;;
74833;SDS011;63361;52.384;20.930;2023-05-07T12:55:05;2.92;;;1.13;;
74833;SDS011;63361;52.384;20.930;2023-05-07T12:57:42;3.92;;;1.20;;
74833;SDS011;63361;52.384;20.930;2023-05-07T13:00:09;3.93;;;1.13;;
74833;SDS011;63361;52.384;20.930;2023-05-07T13:02:38;4.53;;;0.98;;
74833;SDS011;63361;52.384;20.930;2023-05-07T13:05:04;4.18;;;1.40;;
74833;SDS011;63361;52.384;20.930;2023-05-07T13:07:30;5.10;;;1.40;;
74833;SDS011;63361;52.384;20.930;2023-05-07T13:09:55;3.43;;;1.47;;
74833;SDS011;63361;52.384;20.930;2023-05-07T13:12:20;3.80;;;1.10;;
74833;SDS011;63361;52.384;20.930;2023-05-07T13:14:46;3.27;;;1.20;;
74833;SDS011;63361;52.384;20.930;2023-05-07T13:17:11;5.10;;;1.20;;
74833;SDS011;63361;52.384;20.930;2023-05-07T13:19:36;2.37;;;0.90;;
74833;SDS011;63361;52.384;20.930;2023-05-07T13:22:02;3.15;;;1.48;;
74833;SDS011;63361;52.384;20.930;2023-05-07T13:24:28;4.43;;;1.30;;
74833;SDS011;63361;52.384;20.930;2023-05-07T13:26:53;4.20;;;1.40;;
74833;SDS011;63361;52.384;20.930;2023-05-07T13:29:19;3.60;;;1.50;;
74833;SDS011;63361;52.384;20.930;2023-05-07T13:31:44;2.40;;;0.85;;
74833;SDS011;63361;52.384;20.930;2023-05-07T13:34:10;3.13;;;0.90;;
74833;SDS011;63361;52.384;20.930;2023-05-07T13:36:35;3.97;;;1.23;;
74833;SDS011;63361;52.384;20.930;2023-05-07T13:39:04;3.50;;;1.50;;
74833;SDS011;63361;52.384;20.930;2023-05-07T13:41:29;3.85;;;1.05;;
74833;SDS011;63361;52.384;20.930;2023-05-07T13:43:55;2.47;;;0.93;;
74833;SDS011;63361;52.384;20.930;2023-05-07T13:46:21;2.67;;;1.03;;
74833;SDS011;63361;52.384;20.930;2023-05-07T13:48:46;3.20;;;1.30;;
74833;SDS011;63361;52.384;20.930;2023-05-07T13:51:12;4.00;;;1.47;;
74833;SDS011;63361;52.384;20.930;2023-05-07T13:53:37;3.57;;;1.40;;
74833;SDS011;63361;52.384;20.930;2023-05-07T13:56:03;4.40;;;1.30;;
74833;SDS011;63361;52.384;20.930;2023-05-07T13:58:29;5.18;;;1.27;;
74833;SDS011;63361;52.384;20.930;2023-05-07T14:00:55;4.28;;;1.65;;
74833;SDS011;63361;52.384;20.930;2023-05-07T14:03:20;3.77;;;1.20;;
74833;SDS011;63361;52.384;20.930;2023-05-07T14:05:45;3.33;;;1.33;;
74833;SDS011;63361;52.384;20.930;2023-05-07T14:08:11;3.93;;;1.13;;
74833;SDS011;63361;52.384;20.930;2023-05-07T14:10:38;3.60;;;1.27;;
74833;SDS011;63361;52.384;20.930;2023-05-07T14:13:04;3.03;;;1.30;;
74833;SDS011;63361;52.384;20.930;2023-05-07T14:15:30;4.63;;;1.27;;
74833;SDS011;63361;52.384;20.930;2023-05-07T14:17:57;4.28;;;1.17;;
74833;SDS011;63361;52.384;20.930;2023-05-07T14:20:24;3.40;;;1.00;;
74833;SDS011;63361;52.384;20.930;2023-05-07T14:22:49;3.05;;;1.35;;
74833;SDS011;63361;52.384;20.930;2023-05-07T14:25:15;2.53;;;1.10;;
74833;SDS011;63361;52.384;20.930;2023-05-07T14:27:40;3.83;;;1.10;;
74833;SDS011;63361;52.384;20.930;2023-05-07T14:30:06;3.42;;;1.17;;
74833;SDS011;63361;52.384;20.930;2023-05-07T14:32:32;3.50;;;1.00;;
74833;SDS011;63361;52.384;20.930;2023-05-07T14:34:58;14.00;;;6.90;;
74833;SDS011;63361;52.384;20.930;2023-05-07T14:37:23;3.70;;;1.17;;
74833;SDS011;63361;52.384;20.930;2023-05-07T14:39:49;4.18;;;1.40;;
74833;SDS011;63361;52.384;20.930;2023-05-07T14:42:14;3.37;;;1.20;;
74833;SDS011;63361;52.384;20.930;2023-05-07T14:44:40;4.40;;;1.60;;
74833;SDS011;63361;52.384;20.930;2023-05-07T14:47:06;3.28;;;1.60;;
74833;SDS011;63361;52.384;20.930;2023-05-07T14:49:32;3.13;;;1.20;;